sensor_id;sensor_type;location;lat;lon;timestamp;P1;durP1;ratioP1;P2;durP2;ratioP2
52035;SDS011;38046;49.448;32.074;2022-10-16T00:01:14;2.63;;;2.40;;
52035;SDS011;38046;49.448;32.074;2022-10-16T00:03:42;2.53;;;2.25;;
52035;SDS011;38046;49.448;32.074;2022-10-16T00:06:08;3.15;;;2.70;;
52035;SDS011;38046;49.448;32.074;2022-10-16T00:08:35;3.25;;;2.45;;
52035;SDS011;38046;49.448;32.074;2022-10-16T00:11:06;2.75;;;2.55;;
52035;SDS011;38046;49.448;32.074;2022-10-16T00:13:37;3.22;;;2.42;;
52035;SDS011;38046;49.448;32.074;2022-10-16T00:16:04;2.83;;;2.35;;
52035;SDS011;38046;49.448;32.074;2022-10-16T00:18:30;3.13;;;2.60;;
52035;SDS011;38046;49.448;32.074;2022-10-16T00:21:01;2.50;;;2.30;;
52035;SDS011;38046;49.448;32.074;2022-10-16T00:23:29;2.63;;;2.30;;
52035;SDS011;38046;49.448;32.074;2022-10-16T00:25:58;2.92;;;2.53;;
52035;SDS011;38046;49.448;32.074;2022-10-16T00:28:25;2.63;;;2.40;;
52035;SDS011;38046;49.448;32.074;2022-10-16T00:30:51;3.10;;;2.55;;
52035;SDS011;38046;49.448;32.074;2022-10-16T00:33:17;3.28;;;2.47;;
52035;SDS011;38046;49.448;32.074;2022-10-16T00:35:43;2.80;;;2.53;;
52035;SDS011;38046;49.448;32.074;2022-10-16T00:38:09;2.83;;;2.60;;
52035;SDS011;38046;49.448;32.074;2022-10-16T00:40:35;3.00;;;2.60;;
52035;SDS011;38046;49.448;32.074;2022-10-16T00:43:00;2.83;;;2.60;;
52035;SDS011;38046;49.448;32.074;2022-10-16T00:45:26;2.92;;;2.63;;
52035;SDS011;38046;49.448;32.074;2022-10-16T00:47:52;3.25;;;2.90;;
52035;SDS011;38046;49.448;32.074;2022-10-16T00:52:52;3.30;;;2.90;;
52035;SDS011;38046;49.448;32.074;2022-10-16T00:55:18;3.40;;;2.80;;
52035;SDS011;38046;49.448;32.074;2022-10-16T00:57:44;3.67;;;2.83;;
52035;SDS011;38046;49.448;32.074;2022-10-16T01:00:11;4.20;;;3.33;;
52035;SDS011;38046;49.448;32.074;2022-10-16T01:02:40;4.00;;;3.17;;
52035;SDS011;38046;49.448;32.074;2022-10-16T01:05:06;3.70;;;3.20;;
52035;SDS011;38046;49.448;32.074;2022-10-16T01:07:54;5.32;;;3.67;;
52035;SDS011;38046;49.448;32.074;2022-10-16T01:15:48;4.10;;;3.33;;
52035;SDS011;38046;49.448;32.074;2022-10-16T01:21:31;4.00;;;3.28;;
52035;SDS011;38046;49.448;32.074;2022-10-16T01:29:52;3.85;;;2.95;;
52035;SDS011;38046;49.448;32.074;2022-10-16T01:34:53;3.58;;;2.80;;
52035;SDS011;38046;49.448;32.074;2022-10-16T01:37:49;3.08;;;2.78;;
52035;SDS011;38046;49.448;32.074;2022-10-16T01:40:19;3.50;;;2.72;;
52035;SDS011;38046;49.448;32.074;2022-10-16T01:42:49;3.17;;;2.88;;
52035;SDS011;38046;49.448;32.074;2022-10-16T01:45:20;4.25;;;2.80;;
52035;SDS011;38046;49.448;32.074;2022-10-16T01:47:47;3.97;;;3.03;;
52035;SDS011;38046;49.448;32.074;2022-10-16T01:50:15;5.47;;;3.40;;
52035;SDS011;38046;49.448;32.074;2022-10-16T01:52:44;3.35;;;3.00;;
52035;SDS011;38046;49.448;32.074;2022-10-16T01:55:13;4.60;;;2.80;;
52035;SDS011;38046;49.448;32.074;2022-10-16T01:57:44;3.88;;;3.10;;
52035;SDS011;38046;49.448;32.074;2022-10-16T02:00:14;4.60;;;2.85;;
52035;SDS011;38046;49.448;32.074;2022-10-16T02:02:45;3.20;;;2.60;;
52035;SDS011;38046;49.448;32.074;2022-10-16T02:05:22;3.70;;;2.70;;
52035;SDS011;38046;49.448;32.074;2022-10-16T02:07:58;3.47;;;2.78;;
52035;SDS011;38046;49.448;32.074;2022-10-16T02:10:24;3.70;;;3.10;;
52035;SDS011;38046;49.448;32.074;2022-10-16T02:12:54;3.38;;;2.72;;
52035;SDS011;38046;49.448;32.074;2022-10-16T02:15:25;2.92;;;2.53;;
52035;SDS011;38046;49.448;32.074;2022-10-16T02:17:50;3.92;;;2.83;;
52035;SDS011;38046;49.448;32.074;2022-10-16T02:20:16;2.60;;;2.40;;
52035;SDS011;38046;49.448;32.074;2022-10-16T02:22:45;3.75;;;3.08;;
52035;SDS011;38046;49.448;32.074;2022-10-16T02:25:24;3.33;;;2.80;;
52035;SDS011;38046;49.448;32.074;2022-10-16T02:30:44;2.70;;;2.50;;
52035;SDS011;38046;49.448;32.074;2022-10-16T02:33:21;3.47;;;2.50;;
52035;SDS011;38046;49.448;32.074;2022-10-16T02:35:49;4.45;;;3.13;;
52035;SDS011;38046;49.448;32.074;2022-10-16T02:38:16;2.88;;;2.58;;
52035;SDS011;38046;49.448;32.074;2022-10-16T02:40:43;4.07;;;2.90;;
52035;SDS011;38046;49.448;32.074;2022-10-16T02:43:09;3.50;;;2.90;;
52035;SDS011;38046;49.448;32.074;2022-10-16T02:45:35;3.65;;;2.75;;
52035;SDS011;38046;49.448;32.074;2022-10-16T02:48:01;3.45;;;2.70;;
52035;SDS011;38046;49.448;32.074;2022-10-16T02:50:27;3.78;;;2.78;;
52035;SDS011;38046;49.448;32.074;2022-10-16T02:52:52;3.58;;;2.70;;
52035;SDS011;38046;49.448;32.074;2022-10-16T02:55:18;4.22;;;3.03;;
52035;SDS011;38046;49.448;32.074;2022-10-16T02:57:44;3.22;;;2.78;;
52035;SDS011;38046;49.448;32.074;2022-10-16T03:00:11;4.10;;;3.10;;
52035;SDS011;38046;49.448;32.074;2022-10-16T03:02:39;2.90;;;2.60;;
52035;SDS011;38046;49.448;32.074;2022-10-16T03:05:05;3.75;;;2.75;;
52035;SDS011;38046;49.448;32.074;2022-10-16T03:07:31;3.50;;;2.97;;
52035;SDS011;38046;49.448;32.074;2022-10-16T03:09:56;3.70;;;3.00;;
52035;SDS011;38046;49.448;32.074;2022-10-16T03:12:25;4.65;;;3.33;;
52035;SDS011;38046;49.448;32.074;2022-10-16T03:14:51;4.10;;;3.10;;
52035;SDS011;38046;49.448;32.074;2022-10-16T03:17:17;4.38;;;3.35;;
52035;SDS011;38046;49.448;32.074;2022-10-16T03:19:42;3.83;;;3.38;;
52035;SDS011;38046;49.448;32.074;2022-10-16T03:22:08;4.93;;;3.15;;
52035;SDS011;38046;49.448;32.074;2022-10-16T03:24:34;3.30;;;2.85;;
52035;SDS011;38046;49.448;32.074;2022-10-16T03:26:59;3.75;;;3.08;;
52035;SDS011;38046;49.448;32.074;2022-10-16T03:29:25;3.70;;;3.10;;
52035;SDS011;38046;49.448;32.074;2022-10-16T03:31:51;3.60;;;2.75;;
52035;SDS011;38046;49.448;32.074;2022-10-16T03:34:17;3.63;;;2.83;;
52035;SDS011;38046;49.448;32.074;2022-10-16T03:36:42;4.63;;;3.50;;
52035;SDS011;38046;49.448;32.074;2022-10-16T03:39:08;3.72;;;3.30;;
52035;SDS011;38046;49.448;32.074;2022-10-16T03:41:34;4.15;;;3.15;;
52035;SDS011;38046;49.448;32.074;2022-10-16T03:43:59;4.15;;;3.70;;
52035;SDS011;38046;49.448;32.074;2022-10-16T03:46:25;4.60;;;3.83;;
52035;SDS011;38046;49.448;32.074;2022-10-16T03:48:50;5.30;;;4.30;;
52035;SDS011;38046;49.448;32.074;2022-10-16T03:51:16;4.55;;;3.92;;
52035;SDS011;38046;49.448;32.074;2022-10-16T03:53:42;4.80;;;4.03;;
52035;SDS011;38046;49.448;32.074;2022-10-16T03:56:07;6.10;;;4.68;;
52035;SDS011;38046;49.448;32.074;2022-10-16T03:58:33;7.75;;;4.28;;
52035;SDS011;38046;49.448;32.074;2022-10-16T04:00:58;5.05;;;3.90;;
52035;SDS011;38046;49.448;32.074;2022-10-16T04:03:24;4.97;;;4.03;;
52035;SDS011;38046;49.448;32.074;2022-10-16T04:05:50;5.88;;;4.47;;
52035;SDS011;38046;49.448;32.074;2022-10-16T04:08:15;5.20;;;4.13;;
52035;SDS011;38046;49.448;32.074;2022-10-16T04:10:44;5.25;;;4.30;;
52035;SDS011;38046;49.448;32.074;2022-10-16T04:13:10;6.03;;;4.25;;
52035;SDS011;38046;49.448;32.074;2022-10-16T04:15:36;5.95;;;4.60;;
52035;SDS011;38046;49.448;32.074;2022-10-16T04:18:03;4.72;;;4.10;;
52035;SDS011;38046;49.448;32.074;2022-10-16T04:20:28;5.47;;;4.10;;
52035;SDS011;38046;49.448;32.074;2022-10-16T04:22:55;4.55;;;3.78;;
52035;SDS011;38046;49.448;32.074;2022-10-16T04:25:20;5.18;;;3.42;;
52035;SDS011;38046;49.448;32.074;2022-10-16T04:27:46;5.28;;;4.07;;
52035;SDS011;38046;49.448;32.074;2022-10-16T04:30:12;5.40;;;3.80;;
52035;SDS011;38046;49.448;32.074;2022-10-16T04:32:38;6.80;;;4.80;;
52035;SDS011;38046;49.448;32.074;2022-10-16T04:35:04;7.28;;;4.70;;
52035;SDS011;38046;49.448;32.074;2022-10-16T04:37:30;5.47;;;4.00;;
52035;SDS011;38046;49.448;32.074;2022-10-16T04:39:56;6.20;;;4.70;;
52035;SDS011;38046;49.448;32.074;2022-10-16T04:42:21;6.55;;;4.63;;
52035;SDS011;38046;49.448;32.074;2022-10-16T04:44:47;5.57;;;4.35;;
52035;SDS011;38046;49.448;32.074;2022-10-16T04:47:13;5.55;;;4.60;;
52035;SDS011;38046;49.448;32.074;2022-10-16T04:49:38;5.25;;;4.20;;
52035;SDS011;38046;49.448;32.074;2022-10-16T04:52:04;5.35;;;4.00;;
52035;SDS011;38046;49.448;32.074;2022-10-16T04:54:30;5.18;;;4.38;;
52035;SDS011;38046;49.448;32.074;2022-10-16T04:56:56;5.20;;;3.67;;
52035;SDS011;38046;49.448;32.074;2022-10-16T04:59:22;5.65;;;4.07;;
52035;SDS011;38046;49.448;32.074;2022-10-16T05:01:48;4.93;;;3.80;;
52035;SDS011;38046;49.448;32.074;2022-10-16T05:04:14;4.93;;;3.90;;
52035;SDS011;38046;49.448;32.074;2022-10-16T05:06:40;5.18;;;4.05;;
52035;SDS011;38046;49.448;32.074;2022-10-16T05:09:07;5.18;;;3.85;;
52035;SDS011;38046;49.448;32.074;2022-10-16T05:11:33;5.43;;;3.78;;
52035;SDS011;38046;49.448;32.074;2022-10-16T05:13:59;4.82;;;3.65;;
52035;SDS011;38046;49.448;32.074;2022-10-16T05:16:24;5.53;;;4.05;;
52035;SDS011;38046;49.448;32.074;2022-10-16T05:18:53;4.57;;;3.60;;
52035;SDS011;38046;49.448;32.074;2022-10-16T05:21:19;5.13;;;4.20;;
52035;SDS011;38046;49.448;32.074;2022-10-16T05:23:45;5.90;;;4.30;;
52035;SDS011;38046;49.448;32.074;2022-10-16T05:26:11;4.93;;;3.72;;
52035;SDS011;38046;49.448;32.074;2022-10-16T05:28:37;4.65;;;3.55;;
52035;SDS011;38046;49.448;32.074;2022-10-16T05:31:06;4.90;;;3.58;;
52035;SDS011;38046;49.448;32.074;2022-10-16T05:33:32;5.20;;;4.05;;
52035;SDS011;38046;49.448;32.074;2022-10-16T05:36:02;4.28;;;3.55;;
52035;SDS011;38046;49.448;32.074;2022-10-16T05:38:29;4.22;;;3.55;;
52035;SDS011;38046;49.448;32.074;2022-10-16T05:40:55;4.90;;;3.90;;
52035;SDS011;38046;49.448;32.074;2022-10-16T05:43:21;4.35;;;3.42;;
52035;SDS011;38046;49.448;32.074;2022-10-16T05:46:00;5.10;;;4.07;;
52035;SDS011;38046;49.448;32.074;2022-10-16T05:48:27;5.20;;;4.30;;
52035;SDS011;38046;49.448;32.074;2022-10-16T05:50:57;6.28;;;4.22;;
52035;SDS011;38046;49.448;32.074;2022-10-16T05:53:23;4.80;;;3.67;;
52035;SDS011;38046;49.448;32.074;2022-10-16T05:55:53;5.95;;;4.07;;
52035;SDS011;38046;49.448;32.074;2022-10-16T05:58:20;5.65;;;4.07;;
52035;SDS011;38046;49.448;32.074;2022-10-16T06:00:56;4.93;;;3.97;;
52035;SDS011;38046;49.448;32.074;2022-10-16T06:03:23;6.88;;;4.43;;
52035;SDS011;38046;49.448;32.074;2022-10-16T06:05:49;5.47;;;3.95;;
52035;SDS011;38046;49.448;32.074;2022-10-16T06:08:15;6.70;;;4.70;;
52035;SDS011;38046;49.448;32.074;2022-10-16T06:10:41;5.82;;;4.35;;
52035;SDS011;38046;49.448;32.074;2022-10-16T06:13:08;6.53;;;4.65;;
52035;SDS011;38046;49.448;32.074;2022-10-16T06:15:34;5.70;;;4.35;;
52035;SDS011;38046;49.448;32.074;2022-10-16T06:18:00;5.35;;;4.10;;
52035;SDS011;38046;49.448;32.074;2022-10-16T06:20:25;5.55;;;4.30;;
52035;SDS011;38046;49.448;32.074;2022-10-16T06:22:51;6.85;;;4.35;;
52035;SDS011;38046;49.448;32.074;2022-10-16T06:25:17;6.50;;;4.55;;
52035;SDS011;38046;49.448;32.074;2022-10-16T06:27:42;7.10;;;4.82;;
52035;SDS011;38046;49.448;32.074;2022-10-16T06:30:08;5.63;;;4.32;;
52035;SDS011;38046;49.448;32.074;2022-10-16T06:32:34;5.45;;;4.22;;
52035;SDS011;38046;49.448;32.074;2022-10-16T06:35:00;7.18;;;5.18;;
52035;SDS011;38046;49.448;32.074;2022-10-16T06:37:26;5.35;;;4.28;;
52035;SDS011;38046;49.448;32.074;2022-10-16T06:39:52;7.00;;;5.07;;
52035;SDS011;38046;49.448;32.074;2022-10-16T06:42:18;10.82;;;6.40;;
52035;SDS011;38046;49.448;32.074;2022-10-16T06:44:44;8.82;;;6.03;;
52035;SDS011;38046;49.448;32.074;2022-10-16T06:47:09;8.93;;;6.78;;
52035;SDS011;38046;49.448;32.074;2022-10-16T06:49:35;9.15;;;6.80;;
52035;SDS011;38046;49.448;32.074;2022-10-16T06:52:01;8.63;;;6.70;;
52035;SDS011;38046;49.448;32.074;2022-10-16T06:54:27;9.15;;;6.38;;
52035;SDS011;38046;49.448;32.074;2022-10-16T06:56:53;9.40;;;6.10;;
52035;SDS011;38046;49.448;32.074;2022-10-16T06:59:19;8.05;;;5.68;;
52035;SDS011;38046;49.448;32.074;2022-10-16T07:01:46;7.95;;;5.95;;
52035;SDS011;38046;49.448;32.074;2022-10-16T07:04:12;9.13;;;5.90;;
52035;SDS011;38046;49.448;32.074;2022-10-16T07:06:37;8.23;;;5.93;;
52035;SDS011;38046;49.448;32.074;2022-10-16T07:09:05;6.00;;;5.40;;
52035;SDS011;38046;49.448;32.074;2022-10-16T07:11:32;8.65;;;5.70;;
52035;SDS011;38046;49.448;32.074;2022-10-16T07:13:58;7.53;;;5.75;;
52035;SDS011;38046;49.448;32.074;2022-10-16T07:16:28;7.70;;;5.10;;
52035;SDS011;38046;49.448;32.074;2022-10-16T07:18:56;6.72;;;4.85;;
52035;SDS011;38046;49.448;32.074;2022-10-16T07:21:24;6.97;;;4.93;;
52035;SDS011;38046;49.448;32.074;2022-10-16T07:23:51;4.93;;;3.85;;
52035;SDS011;38046;49.448;32.074;2022-10-16T07:26:22;6.38;;;4.70;;
52035;SDS011;38046;49.448;32.074;2022-10-16T07:28:48;6.05;;;4.53;;
52035;SDS011;38046;49.448;32.074;2022-10-16T07:31:15;6.97;;;5.35;;
52035;SDS011;38046;49.448;32.074;2022-10-16T07:33:43;6.35;;;4.28;;
52035;SDS011;38046;49.448;32.074;2022-10-16T07:36:10;6.53;;;4.93;;
52035;SDS011;38046;49.448;32.074;2022-10-16T07:38:37;5.85;;;4.35;;
52035;SDS011;38046;49.448;32.074;2022-10-16T07:41:04;6.95;;;4.72;;
52035;SDS011;38046;49.448;32.074;2022-10-16T07:43:32;6.78;;;5.00;;
52035;SDS011;38046;49.448;32.074;2022-10-16T07:45:58;7.32;;;5.00;;
52035;SDS011;38046;49.448;32.074;2022-10-16T07:48:26;7.85;;;5.15;;
52035;SDS011;38046;49.448;32.074;2022-10-16T07:50:56;6.57;;;5.07;;
52035;SDS011;38046;49.448;32.074;2022-10-16T07:53:26;5.47;;;4.18;;
52035;SDS011;38046;49.448;32.074;2022-10-16T07:55:52;6.03;;;4.78;;
52035;SDS011;38046;49.448;32.074;2022-10-16T07:58:21;5.65;;;4.22;;
52035;SDS011;38046;49.448;32.074;2022-10-16T08:00:47;6.13;;;4.60;;
52035;SDS011;38046;49.448;32.074;2022-10-16T08:03:12;5.32;;;4.15;;
52035;SDS011;38046;49.448;32.074;2022-10-16T08:05:38;5.15;;;4.38;;
52035;SDS011;38046;49.448;32.074;2022-10-16T08:08:03;5.72;;;4.20;;
52035;SDS011;38046;49.448;32.074;2022-10-16T08:10:29;4.75;;;3.75;;
52035;SDS011;38046;49.448;32.074;2022-10-16T08:12:56;7.80;;;4.47;;
52035;SDS011;38046;49.448;32.074;2022-10-16T08:15:22;6.72;;;5.10;;
52035;SDS011;38046;49.448;32.074;2022-10-16T08:18:01;4.63;;;3.85;;
52035;SDS011;38046;49.448;32.074;2022-10-16T08:20:29;5.95;;;4.28;;
52035;SDS011;38046;49.448;32.074;2022-10-16T08:22:55;5.00;;;3.85;;
52035;SDS011;38046;49.448;32.074;2022-10-16T08:25:22;5.97;;;3.88;;
52035;SDS011;38046;49.448;32.074;2022-10-16T08:27:48;6.43;;;4.55;;
52035;SDS011;38046;49.448;32.074;2022-10-16T08:30:15;5.18;;;3.90;;
52035;SDS011;38046;49.448;32.074;2022-10-16T08:32:42;5.63;;;4.55;;
52035;SDS011;38046;49.448;32.074;2022-10-16T08:35:08;6.05;;;4.78;;
52035;SDS011;38046;49.448;32.074;2022-10-16T08:37:35;5.30;;;4.40;;
52035;SDS011;38046;49.448;32.074;2022-10-16T08:40:01;4.65;;;3.92;;
52035;SDS011;38046;49.448;32.074;2022-10-16T08:50:30;5.45;;;4.10;;
52035;SDS011;38046;49.448;32.074;2022-10-16T08:52:57;4.68;;;3.55;;
52035;SDS011;38046;49.448;32.074;2022-10-16T08:57:55;5.20;;;4.10;;
52035;SDS011;38046;49.448;32.074;2022-10-16T09:00:21;6.35;;;4.30;;
52035;SDS011;38046;49.448;32.074;2022-10-16T09:02:56;5.13;;;4.25;;
52035;SDS011;38046;49.448;32.074;2022-10-16T09:17:03;5.13;;;4.15;;
52035;SDS011;38046;49.448;32.074;2022-10-16T09:19:38;5.22;;;4.38;;
52035;SDS011;38046;49.448;32.074;2022-10-16T09:22:14;4.65;;;4.10;;
52035;SDS011;38046;49.448;32.074;2022-10-16T09:24:42;4.55;;;4.00;;
52035;SDS011;38046;49.448;32.074;2022-10-16T09:27:10;6.35;;;4.35;;
52035;SDS011;38046;49.448;32.074;2022-10-16T09:29:37;5.38;;;4.15;;
52035;SDS011;38046;49.448;32.074;2022-10-16T09:32:08;4.68;;;3.88;;
52035;SDS011;38046;49.448;32.074;2022-10-16T09:34:40;5.38;;;4.10;;
52035;SDS011;38046;49.448;32.074;2022-10-16T09:39:48;5.15;;;3.75;;
52035;SDS011;38046;49.448;32.074;2022-10-16T09:42:28;4.53;;;3.38;;
52035;SDS011;38046;49.448;32.074;2022-10-16T09:44:57;4.90;;;3.55;;
52035;SDS011;38046;49.448;32.074;2022-10-16T09:47:23;4.45;;;3.75;;
52035;SDS011;38046;49.448;32.074;2022-10-16T09:50:05;4.47;;;3.58;;
52035;SDS011;38046;49.448;32.074;2022-10-16T09:52:46;4.28;;;3.33;;
52035;SDS011;38046;49.448;32.074;2022-10-16T09:55:13;3.72;;;3.33;;
52035;SDS011;38046;49.448;32.074;2022-10-16T09:57:51;3.72;;;3.15;;
52035;SDS011;38046;49.448;32.074;2022-10-16T10:00:18;3.85;;;3.08;;
52035;SDS011;38046;49.448;32.074;2022-10-16T10:02:44;4.70;;;3.30;;
52035;SDS011;38046;49.448;32.074;2022-10-16T10:05:18;3.25;;;2.95;;
52035;SDS011;38046;49.448;32.074;2022-10-16T10:07:58;3.78;;;3.15;;
52035;SDS011;38046;49.448;32.074;2022-10-16T10:10:31;2.80;;;2.50;;
52035;SDS011;38046;49.448;32.074;2022-10-16T10:12:59;2.88;;;2.20;;
52035;SDS011;38046;49.448;32.074;2022-10-16T10:15:25;2.78;;;2.42;;
52035;SDS011;38046;49.448;32.074;2022-10-16T10:17:57;2.58;;;2.20;;
52035;SDS011;38046;49.448;32.074;2022-10-16T10:20:27;2.53;;;2.30;;
52035;SDS011;38046;49.448;32.074;2022-10-16T10:22:56;2.97;;;2.72;;
52035;SDS011;38046;49.448;32.074;2022-10-16T10:25:25;2.72;;;2.53;;
52035;SDS011;38046;49.448;32.074;2022-10-16T10:31:06;2.30;;;2.13;;
52035;SDS011;38046;49.448;32.074;2022-10-16T10:33:41;3.28;;;2.75;;
52035;SDS011;38046;49.448;32.074;2022-10-16T10:38:59;2.83;;;2.50;;
52035;SDS011;38046;49.448;32.074;2022-10-16T10:47:56;2.60;;;2.40;;
52035;SDS011;38046;49.448;32.074;2022-10-16T11:01:16;3.05;;;2.72;;
52035;SDS011;38046;49.448;32.074;2022-10-16T11:06:44;2.83;;;2.55;;
52035;SDS011;38046;49.448;32.074;2022-10-16T11:09:16;2.95;;;2.60;;
52035;SDS011;38046;49.448;32.074;2022-10-16T11:11:52;2.60;;;2.40;;
52035;SDS011;38046;49.448;32.074;2022-10-16T11:14:24;2.80;;;2.50;;
52035;SDS011;38046;49.448;32.074;2022-10-16T11:19:43;3.35;;;2.60;;
52035;SDS011;38046;49.448;32.074;2022-10-16T11:30:23;3.08;;;2.78;;
52035;SDS011;38046;49.448;32.074;2022-10-16T11:43:46;3.03;;;2.60;;
52035;SDS011;38046;49.448;32.074;2022-10-16T11:46:19;2.55;;;2.35;;
52035;SDS011;38046;49.448;32.074;2022-10-16T11:48:54;2.80;;;2.50;;
52035;SDS011;38046;49.448;32.074;2022-10-16T11:51:25;3.20;;;2.90;;
52035;SDS011;38046;49.448;32.074;2022-10-16T11:57:17;2.90;;;2.58;;
52035;SDS011;38046;49.448;32.074;2022-10-16T11:59:55;2.67;;;2.47;;
52035;SDS011;38046;49.448;32.074;2022-10-16T12:02:34;2.70;;;2.50;;
52035;SDS011;38046;49.448;32.074;2022-10-16T12:10:36;3.15;;;2.80;;
52035;SDS011;38046;49.448;32.074;2022-10-16T12:13:04;2.55;;;2.35;;
52035;SDS011;38046;49.448;32.074;2022-10-16T12:15:31;2.80;;;2.55;;
52035;SDS011;38046;49.448;32.074;2022-10-16T12:17:59;3.50;;;2.70;;
52035;SDS011;38046;49.448;32.074;2022-10-16T12:20:27;3.03;;;2.53;;
52035;SDS011;38046;49.448;32.074;2022-10-16T12:28:00;2.70;;;2.50;;
52035;SDS011;38046;49.448;32.074;2022-10-16T12:30:28;2.88;;;2.50;;
52035;SDS011;38046;49.448;32.074;2022-10-16T12:33:05;2.40;;;2.20;;
52035;SDS011;38046;49.448;32.074;2022-10-16T12:35:44;2.80;;;2.50;;
52035;SDS011;38046;49.448;32.074;2022-10-16T12:38:18;2.85;;;2.55;;
52035;SDS011;38046;49.448;32.074;2022-10-16T12:45:46;2.97;;;2.67;;
52035;SDS011;38046;49.448;32.074;2022-10-16T12:48:21;2.88;;;2.45;;
52035;SDS011;38046;49.448;32.074;2022-10-16T12:50:47;2.63;;;2.42;;
52035;SDS011;38046;49.448;32.074;2022-10-16T12:53:18;2.42;;;2.13;;
52035;SDS011;38046;49.448;32.074;2022-10-16T12:56:28;2.20;;;2.10;;
52035;SDS011;38046;49.448;32.074;2022-10-16T12:59:22;2.92;;;2.60;;
52035;SDS011;38046;49.448;32.074;2022-10-16T13:01:36;2.33;;;2.05;;
52035;SDS011;38046;49.448;32.074;2022-10-16T13:11:55;3.40;;;2.70;;
52035;SDS011;38046;49.448;32.074;2022-10-16T13:28:27;2.47;;;2.28;;
52035;SDS011;38046;49.448;32.074;2022-10-16T13:30:59;2.72;;;2.33;;
52035;SDS011;38046;49.448;32.074;2022-10-16T13:33:33;2.72;;;2.40;;
52035;SDS011;38046;49.448;32.074;2022-10-16T13:36:01;3.58;;;2.40;;
52035;SDS011;38046;49.448;32.074;2022-10-16T13:38:29;2.40;;;2.20;;
52035;SDS011;38046;49.448;32.074;2022-10-16T13:41:03;2.40;;;2.20;;
52035;SDS011;38046;49.448;32.074;2022-10-16T13:46:00;3.33;;;2.47;;
52035;SDS011;38046;49.448;32.074;2022-10-16T13:48:28;4.05;;;2.50;;
52035;SDS011;38046;49.448;32.074;2022-10-16T13:50:58;2.80;;;2.30;;
52035;SDS011;38046;49.448;32.074;2022-10-16T13:53:35;3.05;;;2.25;;
52035;SDS011;38046;49.448;32.074;2022-10-16T13:56:05;2.20;;;2.00;;
52035;SDS011;38046;49.448;32.074;2022-10-16T13:58:33;2.63;;;2.20;;
52035;SDS011;38046;49.448;32.074;2022-10-16T14:01:02;2.38;;;1.90;;
52035;SDS011;38046;49.448;32.074;2022-10-16T14:03:30;2.00;;;1.90;;
52035;SDS011;38046;49.448;32.074;2022-10-16T14:06:01;1.88;;;1.77;;
52035;SDS011;38046;49.448;32.074;2022-10-16T14:08:29;2.38;;;2.17;;
52035;SDS011;38046;49.448;32.074;2022-10-16T14:10:57;2.97;;;2.60;;
52035;SDS011;38046;49.448;32.074;2022-10-16T14:16:15;2.15;;;1.98;;
52035;SDS011;38046;49.448;32.074;2022-10-16T14:18:45;2.55;;;1.80;;
52035;SDS011;38046;49.448;32.074;2022-10-16T14:21:15;2.28;;;2.13;;
52035;SDS011;38046;49.448;32.074;2022-10-16T14:23:41;2.97;;;2.33;;
52035;SDS011;38046;49.448;32.074;2022-10-16T14:28:33;2.38;;;2.17;;
52035;SDS011;38046;49.448;32.074;2022-10-16T14:31:00;3.00;;;2.45;;
52035;SDS011;38046;49.448;32.074;2022-10-16T14:36:10;1.95;;;1.85;;
52035;SDS011;38046;49.448;32.074;2022-10-16T14:38:42;2.90;;;2.30;;
52035;SDS011;38046;49.448;32.074;2022-10-16T14:41:21;3.05;;;2.42;;
52035;SDS011;38046;49.448;32.074;2022-10-16T14:43:51;3.25;;;2.80;;
52035;SDS011;38046;49.448;32.074;2022-10-16T14:46:21;3.22;;;2.53;;
52035;SDS011;38046;49.448;32.074;2022-10-16T14:49:00;3.05;;;2.75;;
52035;SDS011;38046;49.448;32.074;2022-10-16T14:51:47;2.95;;;2.50;;
52035;SDS011;38046;49.448;32.074;2022-10-16T14:54:14;3.72;;;2.63;;
52035;SDS011;38046;49.448;32.074;2022-10-16T14:59:41;3.75;;;2.83;;
52035;SDS011;38046;49.448;32.074;2022-10-16T15:07:07;3.20;;;2.63;;
52035;SDS011;38046;49.448;32.074;2022-10-16T15:09:33;3.28;;;2.72;;
52035;SDS011;38046;49.448;32.074;2022-10-16T15:11:58;3.85;;;2.90;;
52035;SDS011;38046;49.448;32.074;2022-10-16T15:14:24;4.50;;;3.03;;
52035;SDS011;38046;49.448;32.074;2022-10-16T15:16:50;3.53;;;2.83;;
52035;SDS011;38046;49.448;32.074;2022-10-16T15:19:15;4.30;;;3.28;;
52035;SDS011;38046;49.448;32.074;2022-10-16T15:21:41;4.10;;;3.05;;
52035;SDS011;38046;49.448;32.074;2022-10-16T15:24:08;5.70;;;3.50;;
52035;SDS011;38046;49.448;32.074;2022-10-16T15:26:37;4.38;;;3.50;;
52035;SDS011;38046;49.448;32.074;2022-10-16T15:29:03;5.47;;;3.80;;
52035;SDS011;38046;49.448;32.074;2022-10-16T15:31:29;5.80;;;3.67;;
52035;SDS011;38046;49.448;32.074;2022-10-16T15:33:55;5.85;;;3.90;;
52035;SDS011;38046;49.448;32.074;2022-10-16T15:36:31;6.25;;;4.18;;
52035;SDS011;38046;49.448;32.074;2022-10-16T15:39:02;4.60;;;3.80;;
52035;SDS011;38046;49.448;32.074;2022-10-16T15:41:37;6.05;;;4.25;;
52035;SDS011;38046;49.448;32.074;2022-10-16T15:44:02;5.50;;;4.55;;
52035;SDS011;38046;49.448;32.074;2022-10-16T15:46:28;4.78;;;3.78;;
52035;SDS011;38046;49.448;32.074;2022-10-16T15:48:56;5.85;;;4.30;;
52035;SDS011;38046;49.448;32.074;2022-10-16T15:51:23;4.88;;;3.42;;
52035;SDS011;38046;49.448;32.074;2022-10-16T15:53:49;6.72;;;4.68;;
52035;SDS011;38046;49.448;32.074;2022-10-16T15:56:16;6.22;;;4.70;;
52035;SDS011;38046;49.448;32.074;2022-10-16T15:58:42;7.50;;;4.78;;
52035;SDS011;38046;49.448;32.074;2022-10-16T16:01:08;4.70;;;3.80;;
52035;SDS011;38046;49.448;32.074;2022-10-16T16:03:36;6.18;;;4.78;;
52035;SDS011;38046;49.448;32.074;2022-10-16T16:06:05;5.65;;;4.45;;
52035;SDS011;38046;49.448;32.074;2022-10-16T16:08:32;7.07;;;4.50;;
52035;SDS011;38046;49.448;32.074;2022-10-16T16:10:59;9.05;;;5.78;;
52035;SDS011;38046;49.448;32.074;2022-10-16T16:13:30;6.45;;;4.50;;
52035;SDS011;38046;49.448;32.074;2022-10-16T16:15:56;7.18;;;5.00;;
52035;SDS011;38046;49.448;32.074;2022-10-16T16:18:22;7.03;;;4.40;;
52035;SDS011;38046;49.448;32.074;2022-10-16T16:20:49;5.88;;;4.45;;
52035;SDS011;38046;49.448;32.074;2022-10-16T16:23:17;5.43;;;4.30;;
52035;SDS011;38046;49.448;32.074;2022-10-16T16:25:44;5.70;;;4.20;;
52035;SDS011;38046;49.448;32.074;2022-10-16T16:28:10;5.28;;;3.92;;
52035;SDS011;38046;49.448;32.074;2022-10-16T16:30:39;4.70;;;3.40;;
52035;SDS011;38046;49.448;32.074;2022-10-16T16:33:05;4.10;;;3.40;;
52035;SDS011;38046;49.448;32.074;2022-10-16T16:35:30;4.60;;;3.67;;
52035;SDS011;38046;49.448;32.074;2022-10-16T16:37:56;4.30;;;3.42;;
52035;SDS011;38046;49.448;32.074;2022-10-16T16:40:21;3.42;;;3.00;;
52035;SDS011;38046;49.448;32.074;2022-10-16T16:42:48;4.15;;;3.00;;
52035;SDS011;38046;49.448;32.074;2022-10-16T16:45:14;5.63;;;3.35;;
52035;SDS011;38046;49.448;32.074;2022-10-16T16:47:39;5.10;;;3.58;;
52035;SDS011;38046;49.448;32.074;2022-10-16T16:50:05;5.07;;;3.78;;
52035;SDS011;38046;49.448;32.074;2022-10-16T16:52:32;5.90;;;4.10;;
52035;SDS011;38046;49.448;32.074;2022-10-16T16:54:58;6.78;;;4.05;;
52035;SDS011;38046;49.448;32.074;2022-10-16T16:57:24;5.75;;;3.80;;
52035;SDS011;38046;49.448;32.074;2022-10-16T16:59:49;6.80;;;4.40;;
52035;SDS011;38046;49.448;32.074;2022-10-16T17:02:16;6.30;;;4.22;;
52035;SDS011;38046;49.448;32.074;2022-10-16T17:04:42;5.22;;;4.10;;
52035;SDS011;38046;49.448;32.074;2022-10-16T17:07:08;5.80;;;3.97;;
52035;SDS011;38046;49.448;32.074;2022-10-16T17:09:33;5.43;;;3.72;;
52035;SDS011;38046;49.448;32.074;2022-10-16T17:11:59;5.00;;;3.38;;
52035;SDS011;38046;49.448;32.074;2022-10-16T17:14:24;6.93;;;4.18;;